createdAt,value
2022-12-01T00:01:14.047Z,8.85
2022-12-01T00:03:40.779Z,7.03
2022-12-01T00:06:12.045Z,9.75
2022-12-01T00:08:38.950Z,8.88
2022-12-01T00:11:15.497Z,6.15
2022-12-01T00:13:42.122Z,8.93
2022-12-01T00:16:13.146Z,7.85
2022-12-01T00:18:39.963Z,9.00
2022-12-01T00:21:07.019Z,10.70
2022-12-01T00:23:33.681Z,8.13
2022-12-01T00:26:04.957Z,9.38
2022-12-01T00:28:31.834Z,10.02
2022-12-01T00:31:00.800Z,7.65
2022-12-01T00:33:27.419Z,10.73
2022-12-01T00:36:02.232Z,7.57
2022-12-01T00:38:29.028Z,7.90
2022-12-01T00:40:55.752Z,7.50
2022-12-01T00:43:22.451Z,9.45
2022-12-01T00:45:49.342Z,7.80
2022-12-01T00:48:16.291Z,10.00
2022-12-01T00:50:43.710Z,10.05
2022-12-01T00:53:10.407Z,12.45
2022-12-01T00:55:37.095Z,8.10
2022-12-01T00:58:04.584Z,10.95
2022-12-01T01:00:31.467Z,10.65
2022-12-01T01:02:58.168Z,8.88
2022-12-01T01:05:24.839Z,15.35
2022-12-01T01:07:51.629Z,7.60
2022-12-01T01:10:18.648Z,9.82
2022-12-01T01:12:45.313Z,11.68
2022-12-01T01:15:12.127Z,10.50
2022-12-01T01:17:39.042Z,12.35
2022-12-01T01:20:07.001Z,9.50
2022-12-01T01:22:35.571Z,12.82
2022-12-01T01:25:02.215Z,13.15
2022-12-01T01:27:29.472Z,10.15
2022-12-01T01:29:56.079Z,12.55
2022-12-01T01:32:22.837Z,10.48
2022-12-01T01:34:49.477Z,12.70
2022-12-01T01:37:16.129Z,14.77
2022-12-01T01:39:42.731Z,13.40
2022-12-01T01:42:13.996Z,11.70
2022-12-01T01:44:51.366Z,10.07
2022-12-01T01:47:25.853Z,11.90
2022-12-01T01:49:55.093Z,9.45
2022-12-01T01:52:23.476Z,9.02
2022-12-01T01:55:03.043Z,10.45
2022-12-01T02:01:20.307Z,11.52
2022-12-01T02:03:48.287Z,13.98
2022-12-01T02:06:17.377Z,9.82
2022-12-01T02:11:27.617Z,10.95
2022-12-01T02:14:13.483Z,10.60
2022-12-01T02:16:54.791Z,10.35
2022-12-01T02:19:51.205Z,11.27
2022-12-01T02:22:30.087Z,12.48
2022-12-01T02:24:56.975Z,14.50
2022-12-01T02:27:35.119Z,11.23
2022-12-01T02:30:09.332Z,9.55
2022-12-01T02:32:48.001Z,15.75
2022-12-01T02:35:23.686Z,14.30
2022-12-01T02:38:10.497Z,12.32
2022-12-01T02:40:43.884Z,15.30
2022-12-01T02:43:53.781Z,20.77
2022-12-01T02:46:25.771Z,12.18
2022-12-01T02:48:55.046Z,12.90
2022-12-01T02:51:30.965Z,12.98
2022-12-01T02:54:00.748Z,15.68
2022-12-01T02:56:27.465Z,11.60
2022-12-01T02:58:54.236Z,13.48
2022-12-01T03:01:46.314Z,15.13
2022-12-01T03:04:50.174Z,14.18
2022-12-01T03:07:39.418Z,14.18
2022-12-01T03:10:27.607Z,18.42
2022-12-01T03:13:31.043Z,15.60
2022-12-01T03:16:30.924Z,12.32
2022-12-01T03:19:05.782Z,17.73
2022-12-01T03:21:42.365Z,18.75
2022-12-01T03:24:17.233Z,16.33
2022-12-01T03:26:48.756Z,18.77
2022-12-01T03:29:39.985Z,15.98
2022-12-01T03:32:16.147Z,16.88
2022-12-01T03:35:14.594Z,18.33
2022-12-01T03:37:45.757Z,14.18
2022-12-01T03:40:18.539Z,16.23
2022-12-01T03:42:52.038Z,16.13
2022-12-01T03:45:29.902Z,16.80
2022-12-01T03:47:56.701Z,18.40
2022-12-01T03:50:43.102Z,14.40
2022-12-01T03:53:22.602Z,15.73
2022-12-01T03:55:56.348Z,11.32
2022-12-01T03:58:34.567Z,17.70
2022-12-01T04:01:05.768Z,19.38
2022-12-01T04:03:33.668Z,17.60
2022-12-01T04:06:00.703Z,22.25
2022-12-01T04:08:27.349Z,16.92
2022-12-01T04:10:53.963Z,21.33
2022-12-01T04:13:23.538Z,21.17
2022-12-01T04:15:51.105Z,21.55
2022-12-01T04:18:18.588Z,18.48
2022-12-01T04:20:46.730Z,17.25
2022-12-01T04:23:32.550Z,19.05
2022-12-01T04:26:00.949Z,24.42
2022-12-01T04:28:28.021Z,17.05
2022-12-01T04:30:54.790Z,29.02
2022-12-01T04:33:21.777Z,28.08
2022-12-01T04:35:59.471Z,22.40
2022-12-01T04:38:30.513Z,17.40
2022-12-01T04:40:57.875Z,19.27
2022-12-01T04:43:24.707Z,19.67
2022-12-01T04:45:51.534Z,23.27
2022-12-01T04:48:18.146Z,22.25
2022-12-01T04:50:44.845Z,18.77
2022-12-01T04:53:11.458Z,23.30
2022-12-01T04:59:26.880Z,14.80
2022-12-01T05:02:17.710Z,22.00
2022-12-01T05:04:48.260Z,17.15
2022-12-01T05:07:15.500Z,19.95
2022-12-01T05:09:42.138Z,19.75
2022-12-01T05:12:08.910Z,16.05
2022-12-01T05:14:35.517Z,20.48
2022-12-01T05:17:02.458Z,19.52
2022-12-01T05:19:48.256Z,18.02
2022-12-01T05:22:15.124Z,18.27
2022-12-01T05:24:41.740Z,19.45
2022-12-01T05:27:08.366Z,19.42
2022-12-01T05:29:35.972Z,19.02
2022-12-01T05:32:03.230Z,17.23
2022-12-01T05:34:30.364Z,16.23
2022-12-01T05:36:56.975Z,18.38
2022-12-01T05:39:23.583Z,16.60
2022-12-01T05:41:50.236Z,17.42
2022-12-01T05:44:16.927Z,19.10
2022-12-01T05:46:43.580Z,18.05
2022-12-01T05:49:10.403Z,18.63
2022-12-01T05:51:37.020Z,15.05
2022-12-01T05:54:03.819Z,17.40
2022-12-01T05:56:30.646Z,16.55
2022-12-01T05:58:57.255Z,20.92
2022-12-01T06:01:23.846Z,14.93
2022-12-01T06:03:50.744Z,14.05
2022-12-01T06:06:17.612Z,12.98
2022-12-01T06:08:44.301Z,18.40
2022-12-01T06:11:11.231Z,11.55
2022-12-01T06:13:38.261Z,13.55
2022-12-01T06:16:06.670Z,13.68
2022-12-01T06:18:38.361Z,16.83
2022-12-01T06:21:06.702Z,17.52
2022-12-01T06:23:33.984Z,18.20
2022-12-01T06:26:01.076Z,15.23
2022-12-01T06:28:30.697Z,13.43
2022-12-01T06:31:02.767Z,17.60
2022-12-01T06:33:32.178Z,13.55
2022-12-01T06:36:04.347Z,18.08
2022-12-01T06:38:35.937Z,15.02
2022-12-01T06:41:03.443Z,13.73
2022-12-01T06:43:30.411Z,22.48
2022-12-01T06:46:01.706Z,15.50
2022-12-01T06:48:28.851Z,23.55
2022-12-01T06:51:00.628Z,14.70
2022-12-01T06:53:28.692Z,12.85
2022-12-01T06:56:03.170Z,13.35
2022-12-01T06:58:30.726Z,15.18
2022-12-01T07:00:58.973Z,13.07
2022-12-01T07:03:25.831Z,13.20
2022-12-01T07:06:00.663Z,17.17
2022-12-01T07:08:28.821Z,10.15
2022-12-01T07:11:04.219Z,13.48
2022-12-01T07:13:33.786Z,11.80
2022-12-01T07:16:03.098Z,12.55
2022-12-01T07:18:29.982Z,14.07
2022-12-01T07:21:05.301Z,16.30
2022-12-01T07:23:32.129Z,11.95
2022-12-01T07:26:03.729Z,14.35
2022-12-01T07:28:30.769Z,13.30
2022-12-01T07:31:14.773Z,12.60
2022-12-01T07:33:41.950Z,13.93
2022-12-01T07:36:11.185Z,12.73
2022-12-01T07:38:38.848Z,13.90
2022-12-01T07:41:11.988Z,10.88
2022-12-01T07:43:39.407Z,15.05
2022-12-01T07:46:10.946Z,10.82
2022-12-01T07:48:39.011Z,14.75
2022-12-01T07:51:11.021Z,12.98
2022-12-01T07:53:38.208Z,12.57
2022-12-01T07:56:08.587Z,12.85
2022-12-01T07:58:35.824Z,12.38
2022-12-01T08:01:10.885Z,18.13
2022-12-01T08:03:38.348Z,14.65
2022-12-01T08:06:06.060Z,12.85
2022-12-01T08:08:34.514Z,15.15
2022-12-01T08:11:03.840Z,15.25
2022-12-01T08:13:30.930Z,14.43
2022-12-01T08:15:57.914Z,11.77
2022-12-01T08:18:25.031Z,11.85
2022-12-01T08:20:51.949Z,15.65
2022-12-01T08:23:18.704Z,10.35
2022-12-01T08:25:45.333Z,13.70
2022-12-01T08:28:12.036Z,12.25
2022-12-01T08:30:38.750Z,11.10
2022-12-01T08:33:05.394Z,12.05
2022-12-01T08:35:35.668Z,12.73
2022-12-01T08:38:02.411Z,16.23
2022-12-01T08:40:29.162Z,13.40
2022-12-01T08:42:56.085Z,12.00
2022-12-01T08:45:23.267Z,14.20
2022-12-01T08:47:50.431Z,16.00
2022-12-01T08:50:17.289Z,14.40
2022-12-01T08:52:44.046Z,11.90
2022-12-01T08:55:10.737Z,13.15
2022-12-01T08:57:37.357Z,16.65
2022-12-01T09:00:04.792Z,12.55
2022-12-01T09:02:31.549Z,15.60
2022-12-01T09:04:58.253Z,12.65
2022-12-01T09:07:26.832Z,11.70
2022-12-01T09:09:53.942Z,12.38
2022-12-01T09:12:20.684Z,12.45
2022-12-01T09:14:49.708Z,10.32
2022-12-01T09:17:17.529Z,11.38
2022-12-01T09:19:44.514Z,12.90
2022-12-01T09:22:11.754Z,14.48
2022-12-01T09:24:39.208Z,10.93
2022-12-01T09:27:06.146Z,11.65
2022-12-01T09:29:32.911Z,12.10
2022-12-01T09:32:00.657Z,10.68
2022-12-01T09:34:29.181Z,13.82
2022-12-01T09:36:57.811Z,11.90
2022-12-01T09:39:25.058Z,12.63
2022-12-01T09:41:51.970Z,12.63
2022-12-01T09:44:44.979Z,13.95
2022-12-01T09:47:23.994Z,14.60
2022-12-01T09:49:55.844Z,14.07
2022-12-01T09:52:25.665Z,16.08
2022-12-01T09:54:55.239Z,13.77
2022-12-01T09:57:36.899Z,14.38
2022-12-01T10:00:16.722Z,15.07
2022-12-01T10:02:49.468Z,12.15
2022-12-01T10:05:20.100Z,14.23
2022-12-01T10:07:56.610Z,12.75
2022-12-01T10:10:31.878Z,17.20
2022-12-01T10:12:58.830Z,13.90
2022-12-01T10:15:30.188Z,13.88
2022-12-01T10:18:05.847Z,13.05
2022-12-01T10:20:41.420Z,12.57
2022-12-01T10:23:26.913Z,13.60
2022-12-01T10:25:59.593Z,11.25
2022-12-01T10:28:38.420Z,14.38
2022-12-01T10:31:19.823Z,15.95
2022-12-01T10:34:02.583Z,13.52
2022-12-01T10:36:31.374Z,15.25
2022-12-01T10:38:58.215Z,12.45
2022-12-01T10:41:28.110Z,13.68
2022-12-01T10:44:00.850Z,11.75
2022-12-01T10:46:54.074Z,15.45
2022-12-01T10:49:21.045Z,16.80
2022-12-01T10:51:55.337Z,14.30
2022-12-01T10:54:25.511Z,15.68
2022-12-01T10:56:57.236Z,14.10
2022-12-01T10:59:45.793Z,12.77
2022-12-01T11:02:19.999Z,10.98
2022-12-01T11:04:55.093Z,13.75
2022-12-01T11:07:32.235Z,12.27
2022-12-01T11:10:22.074Z,10.95
2022-12-01T11:13:16.942Z,10.65
2022-12-01T11:16:01.044Z,12.07
2022-12-01T11:18:27.660Z,9.32
2022-12-01T11:21:14.463Z,10.95
2022-12-01T11:23:52.771Z,8.45
2022-12-01T11:26:32.287Z,9.10
2022-12-01T11:29:07.027Z,8.40
2022-12-01T11:31:41.799Z,8.52
2022-12-01T11:34:28.694Z,7.65
2022-12-01T11:36:59.422Z,7.35
2022-12-01T11:39:27.978Z,7.47
2022-12-01T11:42:00.875Z,6.90
2022-12-01T11:44:50.282Z,9.40
2022-12-01T11:47:24.308Z,6.13
2022-12-01T11:49:58.864Z,7.55
2022-12-01T11:52:32.858Z,7.35
2022-12-01T11:55:20.896Z,7.60
2022-12-01T11:57:51.083Z,7.68
2022-12-01T12:00:22.089Z,6.35
2022-12-01T12:02:51.833Z,6.55
2022-12-01T12:05:37.228Z,8.20
2022-12-01T12:08:16.057Z,5.95
2022-12-01T12:11:10.398Z,8.55
2022-12-01T12:13:44.239Z,11.35
2022-12-01T12:16:20.024Z,9.55
2022-12-01T12:19:28.976Z,6.45
2022-12-01T12:22:13.384Z,5.97
2022-12-01T12:25:25.041Z,5.00
2022-12-01T12:28:23.004Z,5.15
2022-12-01T12:31:16.022Z,6.05
2022-12-01T12:34:06.423Z,5.88
2022-12-01T12:36:50.816Z,5.03
2022-12-01T12:39:29.469Z,4.68
2022-12-01T12:41:58.080Z,4.50
2022-12-01T12:44:39.996Z,4.05
2022-12-01T12:47:19.971Z,4.35
2022-12-01T12:49:58.078Z,6.20
2022-12-01T12:52:36.672Z,7.03
2022-12-01T12:55:21.802Z,5.22
2022-12-01T12:57:54.093Z,5.45
2022-12-01T13:00:24.718Z,5.03
2022-12-01T13:03:18.163Z,6.25
2022-12-01T13:05:59.728Z,6.53
2022-12-01T13:08:26.359Z,5.55
2022-12-01T13:11:13.239Z,5.05
2022-12-01T13:13:50.524Z,7.50
2022-12-01T13:16:26.103Z,5.85
2022-12-01T13:19:06.022Z,6.60
2022-12-01T13:21:39.462Z,5.93
2022-12-01T13:24:07.562Z,5.32
2022-12-01T13:26:37.361Z,7.57
2022-12-01T13:29:07.642Z,5.65
2022-12-01T13:31:47.833Z,5.55
2022-12-01T13:34:31.209Z,6.45
2022-12-01T13:36:57.984Z,6.40
2022-12-01T13:39:28.017Z,6.45
2022-12-01T13:42:24.547Z,7.35
2022-12-01T13:45:01.082Z,5.80
2022-12-01T13:47:40.136Z,6.85
2022-12-01T13:50:43.048Z,6.47
2022-12-01T13:53:25.341Z,6.97
2022-12-01T13:55:59.744Z,6.40
2022-12-01T13:58:32.822Z,7.43
2022-12-01T14:01:21.673Z,7.47
2022-12-01T14:04:01.301Z,5.78
2022-12-01T14:06:30.862Z,6.20
2022-12-01T14:09:47.027Z,6.57
2022-12-01T14:12:32.976Z,6.22
2022-12-01T14:15:03.382Z,6.22
2022-12-01T14:17:36.560Z,7.20
2022-12-01T14:23:13.212Z,7.10
2022-12-01T14:28:16.930Z,6.35
2022-12-01T14:30:46.160Z,7.90
2022-12-01T14:33:37.436Z,6.80
2022-12-01T14:36:06.876Z,8.32
2022-12-01T14:38:33.978Z,7.93
2022-12-01T14:41:00.965Z,8.63
2022-12-01T14:43:55.343Z,7.72
2022-12-01T14:46:26.291Z,6.85
2022-12-01T14:48:55.193Z,6.22
2022-12-01T14:51:34.319Z,7.22
2022-12-01T14:54:06.686Z,7.75
2022-12-01T14:56:34.244Z,8.00
2022-12-01T14:59:13.838Z,6.78
2022-12-01T15:01:41.280Z,7.47
2022-12-01T15:04:07.999Z,7.25
2022-12-01T15:06:36.710Z,7.35
2022-12-01T15:09:32.790Z,5.85
2022-12-01T15:12:01.292Z,4.82
2022-12-01T15:14:27.883Z,9.38
2022-12-01T15:16:54.744Z,7.97
2022-12-01T15:19:29.438Z,8.00
2022-12-01T15:21:56.507Z,8.55
2022-12-01T15:24:28.706Z,8.45
2022-12-01T15:27:03.481Z,8.02
2022-12-01T15:29:35.812Z,7.53
2022-12-01T15:32:07.095Z,9.77
2022-12-01T15:34:36.754Z,8.73
2022-12-01T15:37:06.995Z,9.07
2022-12-01T15:39:41.601Z,7.88
2022-12-01T15:42:27.878Z,8.70
2022-12-01T15:45:03.645Z,8.63
2022-12-01T15:47:56.574Z,8.75
2022-12-01T15:50:42.736Z,11.88
2022-12-01T15:53:25.018Z,10.63
2022-12-01T15:55:58.594Z,12.00
2022-12-01T15:58:32.913Z,10.65
2022-12-01T16:01:01.278Z,12.05
2022-12-01T16:03:28.737Z,11.40
2022-12-01T16:05:56.501Z,11.80
2022-12-01T16:08:27.297Z,12.43
2022-12-01T16:11:26.930Z,12.52
2022-12-01T16:14:08.219Z,11.82
2022-12-01T16:16:37.241Z,10.45
2022-12-01T16:19:09.909Z,11.63
2022-12-01T16:21:49.769Z,11.38
2022-12-01T16:24:22.542Z,10.45
2022-12-01T16:26:53.155Z,10.77
2022-12-01T16:29:22.389Z,10.70
2022-12-01T16:32:19.861Z,11.07
2022-12-01T16:34:46.371Z,13.48
2022-12-01T16:37:14.788Z,12.77
2022-12-01T16:39:41.678Z,11.25
2022-12-01T16:42:15.282Z,13.52
2022-12-01T16:44:44.791Z,11.18
2022-12-01T16:47:23.080Z,12.73
2022-12-01T16:49:50.756Z,12.02
2022-12-01T16:55:05.230Z,13.63
2022-12-01T16:57:31.850Z,13.07
2022-12-01T16:59:58.480Z,13.25
2022-12-01T17:02:25.178Z,12.73
2022-12-01T17:04:52.185Z,13.32
2022-12-01T17:07:19.012Z,14.20
2022-12-01T17:09:45.796Z,15.82
2022-12-01T17:12:12.440Z,12.23
2022-12-01T17:14:39.071Z,13.60
2022-12-01T17:17:05.845Z,14.07
2022-12-01T17:19:32.535Z,13.23
2022-12-01T17:21:59.219Z,14.82
2022-12-01T17:24:26.060Z,15.80
2022-12-01T17:26:52.676Z,15.45
2022-12-01T17:29:19.481Z,15.32
2022-12-01T17:31:46.211Z,12.82
2022-12-01T17:34:12.897Z,13.15
2022-12-01T17:36:39.527Z,13.27
2022-12-01T17:39:06.262Z,11.98
2022-12-01T17:41:35.816Z,13.15
2022-12-01T17:44:05.811Z,12.23
2022-12-01T17:46:32.647Z,13.00
2022-12-01T17:48:59.420Z,12.10
2022-12-01T17:51:26.148Z,11.40
2022-12-01T17:53:55.683Z,11.63
2022-12-01T17:56:22.304Z,12.45
2022-12-01T17:58:50.545Z,10.13
2022-12-01T18:01:20.778Z,11.70
2022-12-01T18:03:50.659Z,14.57
2022-12-01T18:06:18.426Z,11.52
2022-12-01T18:08:45.211Z,11.38
2022-12-01T18:11:16.371Z,14.10
2022-12-01T18:13:49.055Z,13.68
2022-12-01T18:16:19.754Z,14.25
2022-12-01T18:18:46.765Z,13.27
2022-12-01T18:21:16.903Z,11.13
2022-12-01T18:23:50.378Z,14.93
2022-12-01T18:26:19.605Z,14.63
2022-12-01T18:28:46.473Z,14.35
2022-12-01T18:31:15.682Z,12.63
2022-12-01T18:33:44.117Z,10.50
2022-12-01T18:36:19.870Z,10.77
2022-12-01T18:38:47.409Z,12.27
2022-12-01T18:41:15.169Z,11.25
2022-12-01T18:43:42.486Z,12.77
2022-12-01T18:46:11.194Z,12.88
2022-12-01T18:48:37.897Z,12.00
2022-12-01T18:51:06.254Z,12.95
2022-12-01T18:53:33.582Z,14.00
2022-12-01T18:56:05.033Z,11.40
2022-12-01T18:58:32.362Z,12.27
2022-12-01T19:01:00.166Z,11.10
2022-12-01T19:03:32.852Z,14.23
2022-12-01T19:05:59.749Z,12.23
2022-12-01T19:08:26.474Z,10.80
2022-12-01T19:11:01.392Z,11.95
2022-12-01T19:13:29.635Z,11.20
2022-12-01T19:15:56.539Z,12.07
2022-12-01T19:18:23.239Z,11.63
2022-12-01T19:20:49.966Z,12.23
2022-12-01T19:23:16.612Z,11.90
2022-12-01T19:25:43.244Z,11.88
2022-12-01T19:28:09.941Z,13.93
2022-12-01T19:30:36.600Z,12.50
2022-12-01T19:33:03.229Z,10.32
2022-12-01T19:35:29.885Z,11.65
2022-12-01T19:37:56.513Z,10.65
2022-12-01T19:40:23.158Z,12.43
2022-12-01T19:42:49.802Z,10.73
2022-12-01T19:45:16.582Z,10.10
2022-12-01T19:47:43.208Z,11.98
2022-12-01T19:50:10.646Z,10.70
2022-12-01T19:52:37.305Z,9.50
2022-12-01T19:55:05.900Z,12.43
2022-12-01T19:57:32.568Z,10.27
2022-12-01T19:59:59.217Z,10.02
2022-12-01T20:02:29.166Z,9.50
2022-12-01T20:04:56.694Z,9.82
2022-12-01T20:07:23.623Z,9.05
2022-12-01T20:09:50.599Z,12.05
2022-12-01T20:12:18.232Z,9.10
2022-12-01T20:14:46.484Z,9.55
2022-12-01T20:17:15.956Z,8.80
2022-12-01T20:19:42.924Z,10.07
2022-12-01T20:22:12.021Z,10.88
2022-12-01T20:24:41.549Z,8.50
2022-12-01T20:27:08.634Z,8.85
2022-12-01T20:29:35.684Z,9.15
2022-12-01T20:32:03.154Z,8.93
2022-12-01T20:34:33.445Z,9.70
2022-12-01T20:37:01.235Z,8.13
2022-12-01T20:39:32.138Z,10.50
2022-12-01T20:41:58.787Z,8.75
2022-12-01T20:44:25.510Z,10.40
2022-12-01T20:46:52.748Z,9.05
2022-12-01T20:49:20.720Z,10.68
2022-12-01T20:51:48.348Z,9.23
2022-12-01T20:54:27.741Z,10.32
2022-12-01T20:56:55.372Z,9.57
2022-12-01T20:59:22.506Z,9.85
2022-12-01T21:01:49.190Z,11.50
2022-12-01T21:04:15.941Z,11.68
2022-12-01T21:06:42.803Z,10.52
2022-12-01T21:09:09.610Z,11.13
2022-12-01T21:12:06.922Z,10.93
2022-12-01T21:14:47.500Z,10.18
2022-12-01T21:17:37.868Z,10.70
2022-12-01T21:20:28.134Z,8.70
2022-12-01T21:23:00.078Z,11.95
2022-12-01T21:25:26.789Z,9.38
2022-12-01T21:27:59.751Z,10.18
2022-12-01T21:30:26.709Z,10.10
2022-12-01T21:32:54.137Z,11.30
2022-12-01T21:35:25.414Z,10.70
2022-12-01T21:38:00.770Z,10.70
2022-12-01T21:40:28.567Z,10.63
2022-12-01T21:42:58.048Z,10.38
2022-12-01T21:45:31.265Z,15.80
2022-12-01T21:50:28.433Z,11.35
2022-12-01T21:52:55.185Z,10.15
2022-12-01T21:55:24.641Z,11.95
2022-12-01T21:57:53.234Z,10.73
2022-12-01T22:00:37.059Z,11.38
2022-12-01T22:03:09.686Z,13.02
2022-12-01T22:06:01.209Z,14.77
2022-12-01T22:08:34.469Z,14.95
2022-12-01T22:11:05.281Z,14.25
2022-12-01T22:14:05.971Z,19.00
2022-12-01T22:16:40.671Z,16.65
2022-12-01T22:19:16.608Z,16.77
2022-12-01T22:21:48.206Z,21.15
2022-12-01T22:24:24.845Z,21.50
2022-12-01T22:26:59.872Z,14.80
2022-12-01T22:29:28.474Z,14.00
2022-12-01T22:32:07.318Z,19.30
2022-12-01T22:34:34.778Z,17.50
2022-12-01T22:37:01.390Z,16.38
2022-12-01T22:39:35.643Z,16.02
2022-12-01T22:42:09.666Z,18.50
2022-12-01T22:44:36.355Z,15.82
2022-12-01T22:47:03.644Z,19.05
2022-12-01T22:49:30.808Z,14.82
2022-12-01T22:52:05.519Z,14.85
2022-12-01T22:54:37.585Z,16.27
2022-12-01T22:57:25.585Z,14.40
2022-12-01T22:59:52.561Z,16.40
2022-12-01T23:02:40.366Z,17.05
2022-12-01T23:05:30.097Z,15.40
2022-12-01T23:07:57.625Z,19.40
2022-12-01T23:10:30.834Z,16.92
2022-12-01T23:13:01.107Z,17.42
2022-12-01T23:15:54.226Z,14.50
2022-12-01T23:18:23.812Z,15.50
2022-12-01T23:20:53.465Z,15.00
2022-12-01T23:23:25.662Z,14.18
2022-12-01T23:25:52.391Z,15.48
2022-12-01T23:28:19.776Z,12.70
2022-12-01T23:30:49.594Z,13.90
2022-12-01T23:33:19.551Z,11.80
2022-12-01T23:35:56.206Z,11.57
2022-12-01T23:38:26.395Z,13.45
2022-12-01T23:40:59.130Z,17.30
2022-12-01T23:43:29.645Z,11.77
2022-12-01T23:46:18.629Z,13.13
2022-12-01T23:48:49.302Z,9.77
2022-12-01T23:51:24.441Z,11.25
2022-12-01T23:53:53.483Z,10.57
2022-12-01T23:56:23.020Z,9.70
2022-12-01T23:58:50.178Z,9.98
